Time;durP1;ratioP1;P1;durP2;ratioP2;P2;SDS_P1;SDS_P2;PMS_P1;PMS_P2;Temp;Humidity;BMP_temperature;BMP_pressure;BME280_temperature;BME280_humidity;BME280_pressure;Samples;Min_cycle;Max_cycle;Signal;HPM_P1;HPM_P2
2021/09/28 00:00:06;;;;;;;0.40;0.30;;;;;;;13.49;100.00;96481.91;4971569;28;24448;-76
2021/09/28 00:02:33;;;;;;;0.73;0.40;;;;;;;13.43;100.00;96488.34;4971611;28;25259;-76
2021/09/28 00:05:00;;;;;;;0.50;0.30;;;;;;;13.38;100.00;96494.75;4971575;28;24428;-76
2021/09/28 00:07:27;;;;;;;4.47;0.53;;;;;;;13.32;100.00;96489.00;4971813;28;24429;-76
2021/09/28 00:09:53;;;;;;;0.75;0.30;;;;;;;13.31;100.00;96484.75;4971743;28;24421;-76
2021/09/28 00:12:20;;;;;;;0.60;0.40;;;;;;;13.30;100.00;96509.06;4971607;28;24429;-76
2021/09/28 00:14:47;;;;;;;0.63;0.30;;;;;;;13.43;100.00;96521.34;4971171;28;24954;-76
2021/09/28 00:17:13;;;;;;;0.60;0.40;;;;;;;13.38;100.00;96528.56;4971522;28;24442;-76
2021/09/28 00:19:41;;;;;;;1.17;0.50;;;;;;;13.25;100.00;96533.72;4971554;28;24500;-76
2021/09/28 00:22:08;;;;;;;1.33;0.50;;;;;;;13.18;100.00;96540.19;4971384;28;25018;-76
2021/09/28 00:24:35;;;;;;;1.00;0.40;;;;;;;13.14;99.37;96542.13;4971298;28;24811;-76
2021/09/28 00:27:02;;;;;;;1.63;0.50;;;;;;;12.98;100.00;96534.44;4971601;28;24487;-76
2021/09/28 00:29:28;;;;;;;0.50;0.30;;;;;;;12.97;100.00;96526.69;4971396;28;24565;-76
2021/09/28 00:31:55;;;;;;;1.20;0.60;;;;;;;12.92;100.00;96521.78;4971502;28;24438;-76
2021/09/28 00:34:21;;;;;;;1.17;0.30;;;;;;;12.88;100.00;96511.66;4971515;28;24426;-76
2021/09/28 00:36:48;;;;;;;0.70;0.45;;;;;;;12.73;100.00;96503.03;4971347;28;24426;-76
2021/09/28 00:39:15;;;;;;;2.47;0.68;;;;;;;12.63;100.00;96507.91;4973135;28;24449;-76
2021/09/28 00:41:42;;;;;;;1.67;0.70;;;;;;;12.55;100.00;96515.34;4974857;28;24437;-76
2021/09/28 00:44:09;;;;;;;1.13;0.47;;;;;;;12.42;100.00;96523.03;4974909;28;24421;-76
2021/09/28 00:46:35;;;;;;;1.60;0.70;;;;;;;12.53;100.00;96530.16;4974917;28;24476;-76
2021/09/28 00:49:02;;;;;;;1.35;0.38;;;;;;;12.51;100.00;96539.84;4975329;28;24421;-76
2021/09/28 00:51:29;;;;;;;1.30;0.45;;;;;;;12.34;100.00;96533.84;4974892;28;24476;-76
2021/09/28 00:53:56;;;;;;;1.05;0.40;;;;;;;12.31;100.00;96533.16;4974963;28;24428;-77
2021/09/28 00:56:24;;;;;;;0.50;0.40;;;;;;;12.39;100.00;96536.19;4974520;28;24425;-77
2021/09/28 00:58:51;;;;;;;1.60;0.50;;;;;;;12.43;100.00;96539.44;4974689;28;24476;-77
2021/09/28 01:01:17;;;;;;;1.58;0.70;;;;;;;12.29;100.00;96535.03;4974749;28;24796;-77
2021/09/28 01:03:44;;;;;;;3.33;0.60;;;;;;;12.30;100.00;96547.91;4974778;28;24453;-77
2021/09/28 01:06:10;;;;;;;1.98;0.65;;;;;;;12.35;100.00;96545.91;4974438;28;24420;-77
2021/09/28 01:08:37;;;;;;;1.13;0.55;;;;;;;12.32;100.00;96542.66;4974654;28;24425;-77
2021/09/28 01:11:03;;;;;;;2.23;0.70;;;;;;;12.25;100.00;96549.97;4974304;28;24959;-77
2021/09/28 01:13:31;;;;;;;2.85;0.70;;;;;;;12.16;100.00;96552.22;4974599;28;24422;-77
2021/09/28 01:16:10;;;;;;;1.55;0.60;;;;;;;12.13;100.00;96548.06;4974397;28;24433;-76
2021/09/28 01:18:38;;;;;;;3.85;0.90;;;;;;;12.16;100.00;96557.41;4974233;28;24477;-76
2021/09/28 01:21:09;;;;;;;4.55;0.85;;;;;;;12.12;100.00;96554.16;4974159;28;24425;-76
2021/09/28 01:23:35;;;;;;;2.60;0.90;;;;;;;12.07;100.00;96566.56;4974246;28;24421;-76
2021/09/28 01:26:02;;;;;;;1.63;0.73;;;;;;;12.20;100.00;96571.91;4974179;28;24442;-76
2021/09/28 01:28:28;;;;;;;4.18;0.90;;;;;;;12.16;100.00;96571.25;4974474;28;24417;-76
2021/09/28 01:30:56;;;;;;;2.42;0.77;;;;;;;12.21;100.00;96577.03;4974494;28;24967;-77
2021/09/28 01:33:22;;;;;;;2.85;0.80;;;;;;;12.22;100.00;96573.50;4974149;28;24479;-77
2021/09/28 01:35:49;;;;;;;4.30;0.98;;;;;;;12.25;100.00;96575.94;4973724;28;24445;-77
2021/09/28 01:38:17;;;;;;;3.75;0.98;;;;;;;12.33;100.00;96580.69;4973830;28;24424;-77
2021/09/28 01:40:43;;;;;;;2.03;1.00;;;;;;;12.39;100.00;96579.53;4973852;28;24488;-77
2021/09/28 01:43:11;;;;;;;2.72;0.75;;;;;;;12.45;100.00;96582.56;4973881;28;24803;-76
2021/09/28 01:45:38;;;;;;;2.63;0.95;;;;;;;12.49;99.87;96580.63;4972348;28;24456;-76
2021/09/28 01:48:05;;;;;;;4.07;1.05;;;;;;;12.54;100.00;96576.88;4974177;28;24484;-76
2021/09/28 01:50:32;;;;;;;3.38;0.80;;;;;;;12.56;99.73;96582.78;4972770;28;25026;-76
2021/09/28 01:52:59;;;;;;;1.92;0.85;;;;;;;12.50;99.62;96570.19;4973646;28;24496;-76
2021/09/28 01:55:27;;;;;;;2.70;1.00;;;;;;;12.50;99.94;96570.19;4973797;28;24467;-76
2021/09/28 01:57:56;;;;;;;3.95;1.30;;;;;;;12.35;99.80;96571.91;4973760;28;24947;-76
2021/09/28 02:00:23;;;;;;;3.33;1.25;;;;;;;12.35;100.00;96573.66;4973859;28;24541;-76
2021/09/28 02:02:50;;;;;;;5.32;1.30;;;;;;;12.24;100.00;96569.06;4973792;28;24433;-76
2021/09/28 02:05:16;;;;;;;3.72;1.00;;;;;;;12.37;100.00;96566.59;4973427;28;24433;-76
2021/09/28 02:07:43;;;;;;;4.18;1.08;;;;;;;12.29;100.00;96569.63;4973969;28;24803;-77
2021/09/28 02:10:13;;;;;;;4.50;1.10;;;;;;;12.35;100.00;96566.69;4973795;28;24445;-76
2021/09/28 02:12:41;;;;;;;3.15;1.10;;;;;;;12.31;100.00;96575.59;4973229;28;24954;-76
2021/09/28 02:15:08;;;;;;;4.47;1.35;;;;;;;12.30;100.00;96575.66;4972825;28;24421;-76
2021/09/28 02:17:34;;;;;;;3.58;1.13;;;;;;;12.33;100.00;96573.72;4973634;28;24506;-77
2021/09/28 02:20:01;;;;;;;3.30;1.10;;;;;;;12.34;100.00;96575.38;4973093;28;24456;-76
2021/09/28 02:22:27;;;;;;;4.07;1.00;;;;;;;12.35;100.00;96573.66;4973348;28;24424;-76
2021/09/28 02:24:54;;;;;;;5.07;1.20;;;;;;;12.27;100.00;96574.09;4973013;28;24425;-76
2021/09/28 02:27:20;;;;;;;3.25;1.10;;;;;;;12.26;100.00;96566.38;4972978;28;24955;-76
2021/09/28 02:29:48;;;;;;;5.30;1.35;;;;;;;12.21;100.00;96574.44;4973148;28;24414;-76
2021/09/28 02:32:15;;;;;;;7.88;1.40;;;;;;;12.19;100.00;96573.66;4972877;28;24842;-76
2021/09/28 02:34:42;;;;;;;4.75;1.20;;;;;;;12.18;100.00;96566.81;4972874;28;24433;-76
2021/09/28 02:37:11;;;;;;;3.10;1.20;;;;;;;12.11;100.00;96568.06;4972909;28;24974;-76
2021/09/28 02:39:39;;;;;;;2.47;1.02;;;;;;;12.12;100.00;96572.34;4972789;28;25034;-76
2021/09/28 02:42:06;;;;;;;6.35;1.27;;;;;;;12.13;100.00;96579.22;5032194;23;24529;-76
2021/09/28 02:44:33;;;;;;;7.35;1.55;;;;;;;12.20;100.00;96583.16;5031375;28;24411;-76
2021/09/28 02:47:01;;;;;;;4.38;1.33;;;;;;;12.23;100.00;96572.56;5031411;28;24435;-76
2021/09/28 02:49:27;;;;;;;4.97;1.10;;;;;;;12.33;100.00;96578.91;5031622;28;24423;-76
2021/09/28 02:51:54;;;;;;;3.97;1.23;;;;;;;12.26;100.00;96569.81;5031357;28;24987;-76
2021/09/28 02:54:20;;;;;;;4.82;1.25;;;;;;;12.22;100.00;96576.09;5031546;28;24538;-76
2021/09/28 02:56:47;;;;;;;8.15;1.15;;;;;;;12.25;100.00;96572.50;5031042;28;24960;-76
2021/09/28 02:59:13;;;;;;;9.57;1.23;;;;;;;12.37;100.00;96566.59;5031165;28;24972;-76
2021/09/28 03:01:39;;;;;;;7.20;1.20;;;;;;;12.42;100.00;96572.38;5031040;28;24863;-76
2021/09/28 03:04:07;;;;;;;4.03;1.23;;;;;;;12.37;100.00;96570.97;5031428;28;24481;-76
2021/09/28 03:06:34;;;;;;;5.47;1.20;;;;;;;12.28;100.00;96569.72;5031217;28;24832;-76
2021/09/28 03:09:00;;;;;;;4.57;1.35;;;;;;;12.21;100.00;96568.41;5031268;28;24435;-76
2021/09/28 03:11:27;;;;;;;3.65;1.20;;;;;;;12.39;100.00;96579.53;5031027;28;24435;-76
2021/09/28 03:13:54;;;;;;;3.58;1.20;;;;;;;12.46;100.00;96571.28;5031296;28;24511;-76
2021/09/28 03:16:20;;;;;;;6.45;1.10;;;;;;;12.39;99.87;96577.75;5030938;28;24456;-76
2021/09/28 03:18:47;;;;;;;2.83;1.20;;;;;;;12.24;100.00;96576.03;5031314;28;24419;-76
2021/09/28 03:21:15;;;;;;;2.95;1.20;;;;;;;12.06;100.00;96570.09;5030891;28;24455;-76
2021/09/28 03:23:42;;;;;;;5.35;1.50;;;;;;;12.04;100.00;96572.75;5030835;28;24940;-77
2021/09/28 03:26:08;;;;;;;4.78;1.27;;;;;;;11.96;100.00;96572.38;5030559;28;24482;-76
2021/09/28 03:28:35;;;;;;;3.90;1.33;;;;;;;11.82;100.00;96580.03;5030686;28;24466;-76
2021/09/28 03:31:01;;;;;;;2.57;1.20;;;;;;;11.83;100.00;96580.00;5030910;28;24416;-76
2021/09/28 03:33:30;;;;;;;2.72;1.27;;;;;;;11.83;100.00;96582.59;5030152;28;24420;-76
2021/09/28 03:35:56;;;;;;;3.70;1.30;;;;;;;11.67;100.00;96588.66;5030479;28;24404;-76
2021/09/28 03:38:24;;;;;;;3.30;1.37;;;;;;;11.57;100.00;96586.56;5030656;28;24424;-77
2021/09/28 03:40:51;;;;;;;5.32;1.38;;;;;;;11.49;100.00;96582.69;5030309;28;24460;-76
2021/09/28 03:43:17;;;;;;;3.60;1.40;;;;;;;11.43;100.00;96585.63;5030733;28;24470;-76
2021/09/28 03:45:43;;;;;;;3.95;1.63;;;;;;;11.45;100.00;96591.56;5030290;28;25142;-76
2021/09/28 03:48:10;;;;;;;3.47;1.48;;;;;;;11.40;100.00;96599.59;5030488;28;24447;-76
2021/09/28 03:50:37;;;;;;;4.18;1.60;;;;;;;11.32;100.00;96584.44;5030388;28;25030;-76
2021/09/28 03:53:04;;;;;;;5.28;1.60;;;;;;;11.28;100.00;96580.34;5030640;28;24531;-76
2021/09/28 03:55:32;;;;;;;3.40;1.30;;;;;;;11.23;100.00;96586.66;5030096;28;24420;-76
2021/09/28 03:58:00;;;;;;;2.85;1.25;;;;;;;11.17;100.00;96581.81;5030338;28;24474;-76
2021/09/28 04:00:26;;;;;;;9.20;1.45;;;;;;;11.13;100.00;96581.97;5030448;28;24447;-75
2021/09/28 04:02:53;;;;;;;3.78;1.42;;;;;;;11.12;100.00;96577.72;5030491;28;24465;-76
2021/09/28 04:05:19;;;;;;;4.97;1.58;;;;;;;11.13;100.00;96591.50;5030079;28;24427;-76
2021/09/28 04:07:45;;;;;;;5.80;1.60;;;;;;;11.05;100.00;96588.44;5030887;28;24438;-76
2021/09/28 04:10:12;;;;;;;7.68;1.58;;;;;;;11.04;100.00;96590.22;5030032;28;24420;-77
2021/09/28 04:12:40;;;;;;;3.38;1.27;;;;;;;11.03;100.00;96591.13;5030371;28;24450;-76
2021/09/28 04:15:08;;;;;;;3.97;1.30;;;;;;;11.11;100.00;96588.97;5032050;28;24458;-76
2021/09/28 04:17:34;;;;;;;7.40;1.85;;;;;;;11.08;100.00;96590.88;5034279;28;24490;-76
2021/09/28 04:20:00;;;;;;;6.60;1.52;;;;;;;11.16;100.00;96593.94;5034164;28;24475;-76
2021/09/28 04:22:28;;;;;;;5.25;1.35;;;;;;;11.13;100.00;96596.69;5034178;28;24412;-76
2021/09/28 04:24:55;;;;;;;3.88;1.70;;;;;;;10.97;100.00;96593.19;5033505;28;24940;-76
2021/09/28 04:27:21;;;;;;;4.97;1.63;;;;;;;10.98;100.00;96594.91;5033991;28;24984;-76
2021/09/28 04:29:49;;;;;;;5.50;1.80;;;;;;;10.82;100.00;96589.63;5034256;28;24419;-76
2021/09/28 04:32:16;;;;;;;5.90;1.90;;;;;;;10.88;100.00;96597.09;5029940;28;24506;-76
2021/09/28 04:34:42;;;;;;;7.20;1.83;;;;;;;10.77;100.00;96592.47;5033585;28;24984;-76
2021/09/28 04:37:11;;;;;;;6.35;1.77;;;;;;;10.66;100.00;96595.59;5034194;28;24439;-76
2021/09/28 04:39:37;;;;;;;5.72;1.90;;;;;;;10.67;100.00;96596.44;5028143;28;24440;-76
2021/09/28 04:42:05;;;;;;;3.33;1.58;;;;;;;10.68;100.00;96592.94;5033436;28;25077;-76
2021/09/28 04:44:31;;;;;;;7.95;1.80;;;;;;;10.66;100.00;96594.75;5013895;28;24462;-76
2021/09/28 04:46:59;;;;;;;6.07;1.70;;;;;;;10.62;100.00;96604.44;5014071;28;24424;-76
2021/09/28 04:49:25;;;;;;;4.50;1.60;;;;;;;10.64;100.00;96605.22;5013867;28;24424;-76
2021/09/28 04:51:52;;;;;;;3.38;1.42;;;;;;;10.76;100.00;96610.69;5013673;28;24424;-76
2021/09/28 04:54:18;;;;;;;4.60;1.70;;;;;;;10.65;100.00;96604.28;5013926;28;24786;-76
2021/09/28 04:56:45;;;;;;;8.48;2.15;;;;;;;10.66;100.00;96600.78;5013723;28;24425;-76
2021/09/28 04:59:11;;;;;;;9.73;1.77;;;;;;;10.71;100.00;96608.31;5013737;28;24424;-76
2021/09/28 05:01:37;;;;;;;4.45;1.63;;;;;;;10.82;100.00;96606.00;5013518;28;24444;-76
2021/09/28 05:04:06;;;;;;;5.43;1.48;;;;;;;10.97;100.00;96617.34;5013655;28;24471;-76
2021/09/28 05:06:32;;;;;;;3.10;1.38;;;;;;;11.05;100.00;96616.97;5013135;28;24996;-76
2021/09/28 05:08:59;;;;;;;3.10;1.20;;;;;;;11.03;100.00;96616.22;5013639;28;24432;-76
2021/09/28 05:11:25;;;;;;;4.85;1.60;;;;;;;11.04;100.00;96617.88;5013664;28;24783;-76
2021/09/28 05:13:52;;;;;;;2.53;0.98;;;;;;;11.28;95.19;96621.81;5013612;28;24424;-76
2021/09/28 05:16:20;;;;;;;3.17;1.13;;;;;;;11.17;94.80;96616.34;5013140;28;24428;-76
2021/09/28 05:18:47;;;;;;;2.80;1.23;;;;;;;10.92;98.19;96610.75;5013381;28;24466;-76
2021/09/28 05:21:15;;;;;;;3.42;1.08;;;;;;;10.57;100.00;96614.19;5013127;28;24564;-76
2021/09/28 05:23:45;;;;;;;3.33;1.10;;;;;;;10.45;100.00;96614.78;5013262;28;25084;-76
2021/09/28 05:26:12;;;;;;;6.33;1.47;;;;;;;10.36;100.00;96607.47;5012118;28;24431;-76
2021/09/28 05:28:39;;;;;;;4.05;1.38;;;;;;;10.41;100.00;96608.91;5013238;28;24416;-76
2021/09/28 05:31:05;;;;;;;2.90;1.17;;;;;;;10.39;100.00;96609.91;5013187;28;24417;-76
2021/09/28 05:33:32;;;;;;;4.35;1.60;;;;;;;10.28;100.00;96605.25;5013082;28;24837;-77
2021/09/28 05:35:58;;;;;;;6.53;2.07;;;;;;;10.27;100.00;96606.16;5013025;28;24430;-76
2021/09/28 05:38:26;;;;;;;7.95;2.13;;;;;;;10.03;100.00;96612.47;5012940;28;24417;-76
2021/09/28 05:40:53;;;;;;;7.90;1.83;;;;;;;9.98;100.00;96610.09;5012808;28;24522;-76
2021/09/28 05:43:19;;;;;;;3.92;1.58;;;;;;;10.07;100.00;96617.44;5013376;28;24806;-77
2021/09/28 05:45:46;;;;;;;4.47;1.45;;;;;;;10.24;100.00;96621.81;5025849;28;24442;-78
2021/09/28 05:48:15;;;;;;;2.63;1.30;;;;;;;10.48;99.51;96622.41;5037979;28;24486;-77
2021/09/28 05:50:42;;;;;;;8.90;1.60;;;;;;;10.55;97.30;96620.34;5031334;28;24464;-77
2021/09/28 05:53:10;;;;;;;3.15;1.20;;;;;;;10.38;99.94;96626.34;5037160;28;25016;-77
2021/09/28 05:55:38;;;;;;;2.63;1.38;;;;;;;10.30;100.00;96629.31;5041737;28;24467;-77
2021/09/28 05:58:05;;;;;;;3.08;1.60;;;;;;;10.20;100.00;96628.06;5037934;28;24428;-77
2021/09/28 06:00:31;;;;;;;4.30;1.88;;;;;;;10.25;100.00;96622.66;5033743;28;24506;-78
2021/09/28 06:02:58;;;;;;;7.88;2.45;;;;;;;10.31;100.00;96625.00;5033046;28;24455;-77
2021/09/28 06:05:25;;;;;;;3.17;1.98;;;;;;;10.47;100.00;96625.91;5031258;28;20787;-77
2021/09/28 06:07:51;;;;;;;4.68;1.70;;;;;;;10.60;100.00;96626.97;5033470;28;24489;-76
2021/09/28 06:10:18;;;;;;;4.70;1.90;;;;;;;10.74;100.00;96628.88;5032583;28;24447;-76
2021/09/28 06:12:46;;;;;;;4.95;1.65;;;;;;;10.92;100.00;96624.53;5031662;28;24552;-77
2021/09/28 06:15:13;;;;;;;3.00;1.70;;;;;;;11.08;100.00;96619.41;5027980;28;24439;-76
2021/09/28 06:17:39;;;;;;;6.18;1.73;;;;;;;11.17;100.00;96620.72;5031387;28;24501;-76
2021/09/28 06:20:08;;;;;;;4.18;1.30;;;;;;;11.34;100.00;96623.25;5028451;28;25043;-76
2021/09/28 06:22:34;;;;;;;3.22;1.73;;;;;;;11.38;100.00;96629.94;5031990;28;24424;-75
2021/09/28 06:25:01;;;;;;;6.78;1.65;;;;;;;11.35;100.00;96635.31;5031651;28;24427;-75
2021/09/28 06:27:27;;;;;;;2.85;1.30;;;;;;;11.42;100.00;96636.69;5031947;28;24482;-76
2021/09/28 06:29:55;;;;;;;4.05;1.50;;;;;;;11.35;100.00;96637.91;5032203;28;24658;-77
2021/09/28 06:32:22;;;;;;;5.63;1.70;;;;;;;11.09;100.00;96628.88;5032117;28;24423;-76
2021/09/28 06:34:49;;;;;;;5.37;1.63;;;;;;;11.07;100.00;96626.34;5031499;28;24459;-76
2021/09/28 06:37:16;;;;;;;8.15;1.77;;;;;;;10.98;100.00;96626.84;5031339;28;24426;-77
2021/09/28 06:39:43;;;;;;;6.07;1.77;;;;;;;10.90;100.00;96629.81;5031613;28;24420;-75
2021/09/28 06:42:10;;;;;;;4.82;1.45;;;;;;;10.85;100.00;96631.78;5030411;28;24482;-76
2021/09/28 06:44:36;;;;;;;9.32;1.55;;;;;;;11.01;100.00;96625.81;5030742;28;24802;-76
2021/09/28 06:47:04;;;;;;;9.85;1.67;;;;;;;11.26;100.00;96612.44;5031527;28;24837;-75
2021/09/28 06:49:31;;;;;;;2.92;1.27;;;;;;;11.52;100.00;96616.25;5031794;28;24474;-73
2021/09/28 06:51:58;;;;;;;5.97;1.47;;;;;;;11.34;100.00;96616.31;5031263;28;24459;-75
2021/09/28 06:54:25;;;;;;;3.53;1.45;;;;;;;11.45;100.00;96614.91;5031018;28;25031;-76
2021/09/28 06:56:51;;;;;;;4.22;1.30;;;;;;;11.66;100.00;96606.00;5031034;28;24426;-76
2021/09/28 06:59:18;;;;;;;8.65;1.60;;;;;;;11.88;100.00;96615.25;5031487;28;24420;-76
2021/09/28 07:01:45;;;;;;;4.47;1.80;;;;;;;12.04;98.98;96610.88;5031232;28;24531;-76
2021/09/28 07:04:12;;;;;;;6.82;2.00;;;;;;;11.92;99.51;96615.00;5031331;28;24466;-76
2021/09/28 07:06:39;;;;;;;4.67;1.73;;;;;;;11.68;99.38;96605.91;5030893;28;24836;-76
2021/09/28 07:09:05;;;;;;;3.63;1.60;;;;;;;11.86;99.02;96605.78;5031117;28;24478;-76
2021/09/28 07:11:32;;;;;;;5.95;1.52;;;;;;;11.90;99.21;96606.44;5031757;28;25019;-76
2021/09/28 07:13:58;;;;;;;6.07;1.60;;;;;;;12.21;96.61;96600.41;5031346;28;24424;-76
2021/09/28 07:16:25;;;;;;;4.55;1.85;;;;;;;12.14;95.76;96603.44;5032544;28;24450;-78
2021/09/28 07:18:51;;;;;;;3.97;1.45;;;;;;;12.19;96.00;96609.19;5034883;28;24424;-77
2021/09/28 07:21:19;;;;;;;4.13;1.70;;;;;;;12.35;93.97;96602.22;5031307;28;24526;-76
2021/09/28 07:23:45;;;;;;;3.92;1.55;;;;;;;12.69;92.79;96608.09;5031214;28;24419;-77
2021/09/28 07:26:12;;;;;;;3.83;1.40;;;;;;;12.88;91.07;96605.25;5030327;28;25023;-75
2021/09/28 07:28:39;;;;;;;6.13;1.57;;;;;;;12.92;91.97;96604.97;5031086;28;24412;-77
2021/09/28 07:31:06;;;;;;;4.13;1.48;;;;;;;13.53;93.65;96608.28;5013249;28;24452;-76
2021/09/28 07:33:32;;;;;;;3.40;1.42;;;;;;;13.66;87.63;96597.97;5018457;28;24801;-76
2021/09/28 07:36:00;;;;;;;5.20;1.30;;;;;;;13.55;87.30;96609.06;5030346;28;24428;-75
2021/09/28 07:38:28;;;;;;;4.05;1.55;;;;;;;13.18;87.43;96605.19;5030542;28;24428;-75
2021/09/28 07:40:54;;;;;;;4.03;1.60;;;;;;;13.48;86.88;96607.75;5030504;28;24428;-75
2021/09/28 07:43:21;;;;;;;3.47;1.75;;;;;;;12.96;86.65;96606.47;5030524;28;24977;-75
2021/09/28 07:45:47;;;;;;;7.63;1.88;;;;;;;12.95;88.79;96601.38;5030318;28;24960;-75
2021/09/28 07:48:14;;;;;;;14.48;1.75;;;;;;;13.04;88.53;96606.84;5029959;28;24420;-75
2021/09/28 07:50:41;;;;;;;3.63;1.52;;;;;;;13.23;88.21;96603.16;5030160;28;24431;-74
2021/09/28 07:53:07;;;;;;;5.13;1.58;;;;;;;13.35;86.84;96599.00;5030547;28;24470;-74
2021/09/28 07:55:36;;;;;;;9.55;1.60;;;;;;;13.92;88.25;96596.34;5032173;28;24809;-75
2021/09/28 07:58:03;;;;;;;5.38;1.67;;;;;;;14.61;85.38;96600.63;5032761;28;24416;-75
2021/09/28 08:00:31;;;;;;;5.65;1.48;;;;;;;14.92;79.55;96601.19;5030478;28;24427;-76
2021/09/28 08:02:57;;;;;;;3.03;1.33;;;;;;;15.15;79.72;96597.84;5030718;28;24474;-76
2021/09/28 08:05:24;;;;;;;7.70;1.80;;;;;;;15.08;77.83;96601.81;5030209;28;24420;-76
2021/09/28 08:07:50;;;;;;;4.63;1.40;;;;;;;14.91;76.26;96600.34;5030066;28;24424;-76
2021/09/28 08:10:17;;;;;;;4.80;1.60;;;;;;;14.64;77.99;96602.16;5030358;28;24467;-76
2021/09/28 08:12:46;;;;;;;4.47;1.70;;;;;;;14.24;79.86;96602.13;5029780;28;25054;-76
2021/09/28 08:15:12;;;;;;;4.57;1.50;;;;;;;14.46;78.32;96599.81;5030003;28;24424;-76
2021/09/28 08:17:39;;;;;;;5.25;1.73;;;;;;;14.23;79.40;96601.28;5030352;28;24470;-76
2021/09/28 08:20:09;;;;;;;5.50;1.35;;;;;;;14.28;79.24;96606.22;5030091;28;24461;-76
2021/09/28 08:22:36;;;;;;;4.60;1.58;;;;;;;14.18;79.80;96595.53;5030358;28;24416;-75
2021/09/28 08:25:08;;;;;;;4.95;1.60;;;;;;;14.10;79.18;96597.78;5030042;28;24436;-75
2021/09/28 08:30:20;;;;;;;7.65;1.73;;;;;;;15.24;75.92;96604.25;5030018;28;24474;-76
2021/09/28 08:32:46;;;;;;;5.17;1.90;;;;;;;14.81;78.18;96595.84;5029786;28;25123;-76
2021/09/28 08:35:13;;;;;;;4.05;1.73;;;;;;;14.55;77.92;96598.41;5029854;28;24473;-76
2021/09/28 08:37:40;;;;;;;7.63;1.75;;;;;;;14.83;76.27;96600.03;5030470;28;24648;-75
2021/09/28 08:40:07;;;;;;;4.78;1.20;;;;;;;15.77;75.97;96594.50;5030140;28;24427;-76
2021/09/28 08:42:34;;;;;;;6.03;1.70;;;;;;;16.20;71.08;96600.13;5030427;28;24431;-75
2021/09/28 08:45:00;;;;;;;5.15;1.50;;;;;;;16.53;68.79;96600.38;5029398;28;24478;-75
2021/09/28 08:47:39;;;;;;;3.13;1.20;;;;;;;16.91;68.93;96605.44;5029990;28;24548;-76
2021/09/28 08:50:08;;;;;;;4.30;1.55;;;;;;;17.01;65.25;96601.16;5029950;28;24427;-76
2021/09/28 08:52:39;;;;;;;4.70;1.33;;;;;;;17.13;66.09;96605.47;5030041;28;24439;-76
2021/09/28 08:55:06;;;;;;;6.88;1.40;;;;;;;17.11;62.06;96596.06;5029788;28;24416;-76
2021/09/28 08:57:32;;;;;;;4.53;1.17;;;;;;;17.14;63.73;96595.84;5029883;28;24896;-76
2021/09/28 08:59:59;;;;;;;4.82;1.60;;;;;;;17.65;63.96;96600.63;5030993;28;24416;-76
2021/09/28 09:02:41;;;;;;;6.38;1.63;;;;;;;17.21;61.21;96599.66;5033573;28;24840;-76
2021/09/28 09:05:11;;;;;;;4.00;1.27;;;;;;;16.24;61.66;96592.03;5033400;28;24439;-75
2021/09/28 09:07:38;;;;;;;5.47;1.80;;;;;;;15.42;67.29;96602.13;5033685;28;24431;-75
2021/09/28 09:10:04;;;;;;;6.50;1.55;;;;;;;15.41;66.26;96595.25;5033993;28;24869;-76
2021/09/28 09:12:32;;;;;;;6.55;1.40;;;;;;;16.15;69.60;96593.53;5033626;28;24447;-75
2021/09/28 09:15:19;;;;;;;5.75;1.55;;;;;;;16.80;63.69;96594.94;5033247;28;24490;-75
2021/09/28 09:17:49;;;;;;;6.72;1.60;;;;;;;17.12;62.66;96588.06;5034609;28;24411;-74
2021/09/28 09:20:32;;;;;;;5.03;1.60;;;;;;;16.29;62.15;96585.53;5037098;28;24427;-74
2021/09/28 09:23:18;;;;;;;4.85;1.55;;;;;;;16.17;65.13;96591.66;5034712;28;24423;-75
2021/09/28 09:25:45;;;;;;;7.03;1.60;;;;;;;16.78;67.00;96587.19;5034066;28;24426;-75
2021/09/28 09:28:21;;;;;;;3.78;1.33;;;;;;;17.14;62.87;96586.19;5033500;28;24427;-75
2021/09/28 09:30:47;;;;;;;5.72;1.65;;;;;;;17.30;63.24;96571.94;5033272;28;24420;-75
2021/09/28 09:33:23;;;;;;;4.28;1.40;;;;;;;18.01;66.18;96578.56;5032418;28;24814;-75
2021/09/28 09:35:57;;;;;;;6.90;1.73;;;;;;;17.39;61.54;96584.28;5032755;28;24420;-75
2021/09/28 09:38:24;;;;;;;4.38;1.55;;;;;;;18.21;68.02;96579.63;5032928;28;24416;-75
2021/09/28 09:40:50;;;;;;;3.83;1.30;;;;;;;18.40;59.71;96570.25;5032685;28;24435;-75
2021/09/28 09:43:19;;;;;;;4.35;1.27;;;;;;;18.35;60.21;96570.59;5033128;28;24428;-74
2021/09/28 09:45:46;;;;;;;5.10;1.27;;;;;;;18.31;60.82;96563.94;5032377;28;24878;-74
2021/09/28 09:48:24;;;;;;;4.60;1.65;;;;;;;18.16;57.84;96562.56;5032285;28;24486;-75
2021/09/28 09:51:06;;;;;;;4.25;1.27;;;;;;;17.95;56.71;96558.13;5032204;28;24474;-76
2021/09/28 09:53:32;;;;;;;3.72;1.35;;;;;;;18.31;57.72;96556.09;5034399;28;24423;-78
2021/09/28 09:55:59;;;;;;;3.00;1.20;;;;;;;18.57;55.93;96554.78;5035198;28;24502;-77
2021/09/28 09:58:26;;;;;;;3.92;1.63;;;;;;;18.38;56.83;96552.84;5032541;28;24505;-77
2021/09/28 10:00:54;;;;;;;5.83;1.40;;;;;;;18.59;58.20;96558.13;5035639;28;25067;-77
2021/09/28 10:03:22;;;;;;;2.33;0.90;;;;;;;18.59;59.91;96552.03;5034548;28;24821;-76
2021/09/28 10:05:49;;;;;;;3.75;1.30;;;;;;;18.32;62.20;96555.16;5032567;28;24432;-78
2021/09/28 10:08:15;;;;;;;5.75;1.52;;;;;;;18.38;62.24;96546.75;5036559;28;24793;-78
2021/09/28 10:10:43;;;;;;;5.88;1.50;;;;;;;18.61;63.85;96535.22;5034591;28;24430;-76
2021/09/28 10:13:48;;;;;;;3.50;1.40;;;;;;;18.58;59.29;96535.47;5031965;28;24823;-76
2021/09/28 10:16:39;;;;;;;4.43;1.40;;;;;;;18.49;58.55;96535.38;5035222;28;24968;-77
2021/09/28 10:19:21;;;;;;;5.23;1.37;;;;;;;18.58;60.82;96542.53;5033806;28;24425;-77
2021/09/28 10:21:47;;;;;;;4.40;1.30;;;;;;;18.58;61.36;96524.16;5031824;28;24436;-77
2021/09/28 10:24:28;;;;;;;4.18;1.23;;;;;;;18.19;58.85;96533.50;5035631;28;24435;-78
2021/09/28 10:27:29;;;;;;;4.23;1.33;;;;;;;18.19;57.65;96530.88;5034926;28;24470;-77
2021/09/28 10:29:57;;;;;;;6.45;1.45;;;;;;;18.20;56.79;96532.53;5032108;28;24837;-76
2021/09/28 10:32:48;;;;;;;4.55;1.42;;;;;;;18.22;64.52;96526.22;5031765;28;24494;-77
2021/09/28 10:35:17;;;;;;;5.30;1.52;;;;;;;18.11;57.99;96526.25;5031376;28;24431;-77
2021/09/28 10:37:52;;;;;;;4.03;1.60;;;;;;;17.69;58.41;96512.13;5032819;28;24972;-77
2021/09/28 10:40:49;;;;;;;3.55;1.30;;;;;;;17.52;63.22;96505.63;5034707;28;24499;-77
2021/09/28 10:43:27;;;;;;;8.90;1.52;;;;;;;17.70;63.00;96506.78;5034166;28;24424;-77
2021/09/28 10:45:57;;;;;;;3.47;1.50;;;;;;;17.88;63.93;96502.72;5031207;28;25010;-77
2021/09/28 10:48:39;;;;;;;7.13;1.90;;;;;;;17.32;62.70;96496.72;5031160;28;24845;-77
2021/09/28 10:51:11;;;;;;;3.03;1.55;;;;;;;17.29;61.94;96502.19;5029730;28;25005;-77
2021/09/28 10:53:39;;;;;;;5.40;1.55;;;;;;;17.31;60.74;96508.97;5031431;28;24790;-77
2021/09/28 10:56:08;;;;;;;5.60;1.40;;;;;;;17.37;61.45;96500.63;5028025;28;24439;-77
2021/09/28 10:58:51;;;;;;;3.15;1.20;;;;;;;17.35;60.75;96506.94;5029662;28;24450;-77
2021/09/28 11:01:21;;;;;;;2.95;1.20;;;;;;;17.36;57.74;96503.38;5031255;28;24442;-77
2021/09/28 11:03:55;;;;;;;3.25;1.20;;;;;;;17.54;59.38;96504.56;5035174;27;24439;-77
2021/09/28 11:06:48;;;;;;;2.87;1.10;;;;;;;17.67;60.05;96505.22;5071987;27;24480;-76
2021/09/28 11:09:16;;;;;;;4.05;1.23;;;;;;;17.76;58.83;96495.00;5071436;28;24533;-76
2021/09/28 11:11:45;;;;;;;4.57;1.60;;;;;;;17.41;62.01;96498.63;5071018;28;24419;-77
2021/09/28 11:14:12;;;;;;;3.10;1.45;;;;;;;17.37;61.54;96497.19;5072944;28;24419;-77
2021/09/28 11:16:41;;;;;;;3.40;1.27;;;;;;;17.43;59.06;96499.34;5073296;28;24944;-77
2021/09/28 11:19:08;;;;;;;8.40;1.52;;;;;;;17.25;62.80;96498.16;5071522;28;24440;-77
2021/09/28 11:21:37;;;;;;;6.70;1.77;;;;;;;17.25;65.83;96490.31;5070570;28;24426;-76
2021/09/28 11:24:03;;;;;;;5.47;1.65;;;;;;;17.37;62.42;96490.16;5070072;28;24450;-76
2021/09/28 11:26:32;;;;;;;4.55;1.58;;;;;;;17.25;62.91;96483.28;5070627;28;24430;-76
2021/09/28 11:28:59;;;;;;;4.53;1.70;;;;;;;16.95;64.93;96488.28;5071305;28;25035;-77
2021/09/28 11:31:31;;;;;;;2.70;1.20;;;;;;;16.99;64.55;96481.84;5070945;28;24484;-77
2021/09/28 11:34:00;;;;;;;7.45;1.63;;;;;;;16.90;64.61;96486.00;5070516;28;24418;-77
2021/09/28 11:36:32;;;;;;;5.72;1.95;;;;;;;16.87;63.80;96481.84;5070487;28;24430;-77